sensor_id;sensor_type;location;lat;lon;timestamp;P1;durP1;ratioP1;P2;durP2;ratioP2
57846;SDS011;43675;50.030;21.952;2023-07-08T00:00:42;25.90;;;23.40;;
57846;SDS011;43675;50.030;21.952;2023-07-08T00:03:30;27.30;;;24.70;;
57846;SDS011;43675;50.030;21.952;2023-07-08T00:05:56;24.20;;;22.20;;
57846;SDS011;43675;50.030;21.952;2023-07-08T00:08:23;26.70;;;24.20;;
57846;SDS011;43675;50.030;21.952;2023-07-08T00:10:49;25.20;;;22.90;;
57846;SDS011;43675;50.030;21.952;2023-07-08T00:13:16;25.40;;;23.20;;
57846;SDS011;43675;50.030;21.952;2023-07-08T00:15:42;27.60;;;24.90;;
57846;SDS011;43675;50.030;21.952;2023-07-08T00:18:13;26.70;;;24.30;;
57846;SDS011;43675;50.030;21.952;2023-07-08T00:20:45;27.80;;;25.10;;
57846;SDS011;43675;50.030;21.952;2023-07-08T00:23:14;27.20;;;24.70;;
57846;SDS011;43675;50.030;21.952;2023-07-08T00:25:41;27.30;;;24.60;;
57846;SDS011;43675;50.030;21.952;2023-07-08T00:28:18;27.30;;;24.50;;
57846;SDS011;43675;50.030;21.952;2023-07-08T00:30:46;28.10;;;25.20;;
57846;SDS011;43675;50.030;21.952;2023-07-08T00:33:14;27.70;;;25.10;;
57846;SDS011;43675;50.030;21.952;2023-07-08T00:35:41;27.90;;;25.20;;
57846;SDS011;43675;50.030;21.952;2023-07-08T00:40:57;27.40;;;25.10;;
57846;SDS011;43675;50.030;21.952;2023-07-08T00:43:45;28.80;;;26.20;;
57846;SDS011;43675;50.030;21.952;2023-07-08T00:48:55;28.30;;;25.80;;
57846;SDS011;43675;50.030;21.952;2023-07-08T00:51:24;28.10;;;25.60;;
57846;SDS011;43675;50.030;21.952;2023-07-08T00:53:50;28.40;;;25.90;;
57846;SDS011;43675;50.030;21.952;2023-07-08T00:59:18;28.70;;;25.90;;
57846;SDS011;43675;50.030;21.952;2023-07-08T01:01:45;27.60;;;24.90;;
57846;SDS011;43675;50.030;21.952;2023-07-08T01:07:07;29.30;;;26.40;;
57846;SDS011;43675;50.030;21.952;2023-07-08T01:09:43;29.70;;;27.10;;
57846;SDS011;43675;50.030;21.952;2023-07-08T01:12:14;29.40;;;26.50;;
57846;SDS011;43675;50.030;21.952;2023-07-08T01:14:45;30.80;;;28.00;;
57846;SDS011;43675;50.030;21.952;2023-07-08T01:17:13;33.00;;;29.70;;
57846;SDS011;43675;50.030;21.952;2023-07-08T01:19:40;32.90;;;29.50;;
57846;SDS011;43675;50.030;21.952;2023-07-08T01:22:08;31.70;;;28.90;;
57846;SDS011;43675;50.030;21.952;2023-07-08T01:24:36;30.90;;;27.90;;
57846;SDS011;43675;50.030;21.952;2023-07-08T01:27:06;29.90;;;27.30;;
57846;SDS011;43675;50.030;21.952;2023-07-08T01:29:34;30.40;;;27.60;;
57846;SDS011;43675;50.030;21.952;2023-07-08T01:32:01;31.60;;;28.60;;
57846;SDS011;43675;50.030;21.952;2023-07-08T01:34:31;32.50;;;29.40;;
57846;SDS011;43675;50.030;21.952;2023-07-08T01:36:59;30.90;;;27.70;;
57846;SDS011;43675;50.030;21.952;2023-07-08T01:39:30;31.80;;;28.80;;
57846;SDS011;43675;50.030;21.952;2023-07-08T01:41:58;32.40;;;29.30;;
57846;SDS011;43675;50.030;21.952;2023-07-08T01:44:29;32.70;;;29.40;;
57846;SDS011;43675;50.030;21.952;2023-07-08T01:46:59;31.80;;;29.00;;
57846;SDS011;43675;50.030;21.952;2023-07-08T01:49:31;32.30;;;29.30;;
57846;SDS011;43675;50.030;21.952;2023-07-08T01:52:01;31.20;;;28.40;;
57846;SDS011;43675;50.030;21.952;2023-07-08T01:54:28;31.50;;;28.50;;
57846;SDS011;43675;50.030;21.952;2023-07-08T01:56:55;31.10;;;28.10;;
57846;SDS011;43675;50.030;21.952;2023-07-08T01:59:23;36.30;;;28.60;;
57846;SDS011;43675;50.030;21.952;2023-07-08T02:01:50;31.50;;;28.20;;
57846;SDS011;43675;50.030;21.952;2023-07-08T02:04:17;30.80;;;28.10;;
57846;SDS011;43675;50.030;21.952;2023-07-08T02:06:43;32.90;;;29.90;;
57846;SDS011;43675;50.030;21.952;2023-07-08T02:09:26;32.80;;;29.60;;
57846;SDS011;43675;50.030;21.952;2023-07-08T02:11:53;35.20;;;31.80;;
57846;SDS011;43675;50.030;21.952;2023-07-08T02:14:20;33.70;;;30.80;;
57846;SDS011;43675;50.030;21.952;2023-07-08T02:16:46;34.30;;;31.00;;
57846;SDS011;43675;50.030;21.952;2023-07-08T02:19:13;33.50;;;30.40;;
57846;SDS011;43675;50.030;21.952;2023-07-08T02:21:40;32.10;;;29.20;;
57846;SDS011;43675;50.030;21.952;2023-07-08T02:24:07;32.60;;;29.30;;
57846;SDS011;43675;50.030;21.952;2023-07-08T02:26:34;30.30;;;27.50;;
57846;SDS011;43675;50.030;21.952;2023-07-08T02:29:00;31.60;;;28.30;;
57846;SDS011;43675;50.030;21.952;2023-07-08T02:31:27;31.70;;;29.00;;
57846;SDS011;43675;50.030;21.952;2023-07-08T02:33:54;31.30;;;28.50;;
57846;SDS011;43675;50.030;21.952;2023-07-08T02:36:21;33.30;;;29.90;;
57846;SDS011;43675;50.030;21.952;2023-07-08T02:38:48;34.20;;;30.80;;
57846;SDS011;43675;50.030;21.952;2023-07-08T02:41:14;35.00;;;31.70;;
57846;SDS011;43675;50.030;21.952;2023-07-08T02:43:41;34.10;;;31.00;;
57846;SDS011;43675;50.030;21.952;2023-07-08T02:46:07;33.80;;;30.50;;
57846;SDS011;43675;50.030;21.952;2023-07-08T02:48:34;34.00;;;30.70;;
57846;SDS011;43675;50.030;21.952;2023-07-08T02:51:04;34.30;;;30.90;;
57846;SDS011;43675;50.030;21.952;2023-07-08T02:53:31;36.60;;;33.10;;
57846;SDS011;43675;50.030;21.952;2023-07-08T02:55:58;36.70;;;31.80;;
57846;SDS011;43675;50.030;21.952;2023-07-08T02:58:24;35.30;;;31.60;;
57846;SDS011;43675;50.030;21.952;2023-07-08T03:00:54;34.30;;;31.10;;
57846;SDS011;43675;50.030;21.952;2023-07-08T03:03:22;34.70;;;31.00;;
57846;SDS011;43675;50.030;21.952;2023-07-08T03:05:55;33.10;;;29.70;;
57846;SDS011;43675;50.030;21.952;2023-07-08T03:08:30;31.70;;;28.70;;
57846;SDS011;43675;50.030;21.952;2023-07-08T03:10:58;30.10;;;27.30;;
57846;SDS011;43675;50.030;21.952;2023-07-08T03:13:27;31.80;;;28.80;;
57846;SDS011;43675;50.030;21.952;2023-07-08T03:15:54;33.90;;;30.50;;
57846;SDS011;43675;50.030;21.952;2023-07-08T03:18:21;34.00;;;30.50;;
57846;SDS011;43675;50.030;21.952;2023-07-08T03:20:48;34.30;;;31.10;;
57846;SDS011;43675;50.030;21.952;2023-07-08T03:23:15;32.90;;;29.50;;
57846;SDS011;43675;50.030;21.952;2023-07-08T03:25:42;31.30;;;28.40;;
57846;SDS011;43675;50.030;21.952;2023-07-08T03:28:08;30.40;;;27.60;;
57846;SDS011;43675;50.030;21.952;2023-07-08T03:30:35;30.10;;;27.20;;
57846;SDS011;43675;50.030;21.952;2023-07-08T03:33:01;31.00;;;28.00;;
57846;SDS011;43675;50.030;21.952;2023-07-08T03:35:28;32.10;;;29.00;;
57846;SDS011;43675;50.030;21.952;2023-07-08T03:37:54;33.30;;;30.20;;
57846;SDS011;43675;50.030;21.952;2023-07-08T03:40:21;34.50;;;30.90;;
57846;SDS011;43675;50.030;21.952;2023-07-08T03:42:47;33.80;;;30.30;;
57846;SDS011;43675;50.030;21.952;2023-07-08T03:45:14;31.20;;;28.10;;
57846;SDS011;43675;50.030;21.952;2023-07-08T03:47:41;31.30;;;28.30;;
57846;SDS011;43675;50.030;21.952;2023-07-08T03:50:11;30.90;;;27.90;;
57846;SDS011;43675;50.030;21.952;2023-07-08T03:52:47;31.00;;;27.70;;
57846;SDS011;43675;50.030;21.952;2023-07-08T03:55:14;30.20;;;27.00;;
57846;SDS011;43675;50.030;21.952;2023-07-08T03:57:41;29.90;;;27.00;;
57846;SDS011;43675;50.030;21.952;2023-07-08T04:00:08;30.00;;;26.90;;
57846;SDS011;43675;50.030;21.952;2023-07-08T04:02:35;30.30;;;27.40;;
57846;SDS011;43675;50.030;21.952;2023-07-08T04:05:02;29.60;;;26.60;;
57846;SDS011;43675;50.030;21.952;2023-07-08T04:07:29;29.50;;;26.60;;
57846;SDS011;43675;50.030;21.952;2023-07-08T04:09:55;29.30;;;26.40;;
57846;SDS011;43675;50.030;21.952;2023-07-08T04:12:22;29.70;;;26.60;;
57846;SDS011;43675;50.030;21.952;2023-07-08T04:14:48;29.00;;;26.30;;
57846;SDS011;43675;50.030;21.952;2023-07-08T04:17:15;28.60;;;25.90;;
57846;SDS011;43675;50.030;21.952;2023-07-08T04:19:44;27.40;;;24.50;;
57846;SDS011;43675;50.030;21.952;2023-07-08T04:22:11;26.30;;;23.70;;
57846;SDS011;43675;50.030;21.952;2023-07-08T04:24:37;26.80;;;23.90;;
57846;SDS011;43675;50.030;21.952;2023-07-08T04:27:04;25.70;;;23.30;;
57846;SDS011;43675;50.030;21.952;2023-07-08T04:29:31;26.20;;;23.60;;
57846;SDS011;43675;50.030;21.952;2023-07-08T04:31:58;25.60;;;22.90;;
57846;SDS011;43675;50.030;21.952;2023-07-08T04:34:24;25.20;;;22.70;;
57846;SDS011;43675;50.030;21.952;2023-07-08T04:36:51;24.00;;;21.80;;
57846;SDS011;43675;50.030;21.952;2023-07-08T04:39:17;25.20;;;22.80;;
57846;SDS011;43675;50.030;21.952;2023-07-08T04:41:43;24.70;;;22.30;;
57846;SDS011;43675;50.030;21.952;2023-07-08T04:44:10;24.80;;;22.30;;
57846;SDS011;43675;50.030;21.952;2023-07-08T04:46:42;23.90;;;21.70;;
57846;SDS011;43675;50.030;21.952;2023-07-08T04:49:13;24.40;;;22.10;;
57846;SDS011;43675;50.030;21.952;2023-07-08T04:51:40;24.20;;;22.00;;
57846;SDS011;43675;50.030;21.952;2023-07-08T04:54:07;28.80;;;22.10;;
57846;SDS011;43675;50.030;21.952;2023-07-08T04:56:35;24.40;;;22.00;;
57846;SDS011;43675;50.030;21.952;2023-07-08T04:59:04;24.40;;;21.90;;
57846;SDS011;43675;50.030;21.952;2023-07-08T05:01:32;24.10;;;21.80;;
57846;SDS011;43675;50.030;21.952;2023-07-08T05:03:59;24.20;;;21.80;;
57846;SDS011;43675;50.030;21.952;2023-07-08T05:06:26;24.10;;;21.80;;
57846;SDS011;43675;50.030;21.952;2023-07-08T05:08:53;26.10;;;22.60;;
57846;SDS011;43675;50.030;21.952;2023-07-08T05:11:19;25.50;;;22.90;;
57846;SDS011;43675;50.030;21.952;2023-07-08T05:13:46;25.10;;;22.80;;
57846;SDS011;43675;50.030;21.952;2023-07-08T05:16:13;25.90;;;23.40;;
57846;SDS011;43675;50.030;21.952;2023-07-08T05:18:39;27.50;;;24.90;;
57846;SDS011;43675;50.030;21.952;2023-07-08T05:21:06;28.50;;;25.70;;
57846;SDS011;43675;50.030;21.952;2023-07-08T05:23:32;27.70;;;24.90;;
57846;SDS011;43675;50.030;21.952;2023-07-08T05:26:00;27.10;;;24.20;;
57846;SDS011;43675;50.030;21.952;2023-07-08T05:28:28;26.70;;;23.90;;
57846;SDS011;43675;50.030;21.952;2023-07-08T05:30:54;27.20;;;24.50;;
57846;SDS011;43675;50.030;21.952;2023-07-08T05:33:22;25.80;;;23.30;;
57846;SDS011;43675;50.030;21.952;2023-07-08T05:35:50;26.20;;;23.60;;
57846;SDS011;43675;50.030;21.952;2023-07-08T05:38:16;26.50;;;24.00;;
57846;SDS011;43675;50.030;21.952;2023-07-08T05:40:47;26.20;;;23.60;;
57846;SDS011;43675;50.030;21.952;2023-07-08T05:43:16;25.70;;;23.30;;
57846;SDS011;43675;50.030;21.952;2023-07-08T05:45:43;25.60;;;23.00;;
57846;SDS011;43675;50.030;21.952;2023-07-08T05:48:10;25.10;;;22.80;;
57846;SDS011;43675;50.030;21.952;2023-07-08T05:50:37;24.80;;;22.50;;
57846;SDS011;43675;50.030;21.952;2023-07-08T05:53:05;24.80;;;22.20;;
57846;SDS011;43675;50.030;21.952;2023-07-08T05:55:32;24.30;;;22.20;;
57846;SDS011;43675;50.030;21.952;2023-07-08T05:57:58;24.90;;;22.70;;
57846;SDS011;43675;50.030;21.952;2023-07-08T06:00:25;24.40;;;21.80;;
57846;SDS011;43675;50.030;21.952;2023-07-08T06:02:52;23.30;;;21.20;;
57846;SDS011;43675;50.030;21.952;2023-07-08T06:05:18;23.10;;;20.90;;
57846;SDS011;43675;50.030;21.952;2023-07-08T06:07:45;24.30;;;22.00;;
57846;SDS011;43675;50.030;21.952;2023-07-08T06:10:11;22.70;;;20.70;;
57846;SDS011;43675;50.030;21.952;2023-07-08T06:12:38;24.00;;;21.40;;
57846;SDS011;43675;50.030;21.952;2023-07-08T06:15:05;25.10;;;21.50;;
57846;SDS011;43675;50.030;21.952;2023-07-08T06:17:32;23.10;;;20.90;;
57846;SDS011;43675;50.030;21.952;2023-07-08T06:19:59;23.80;;;21.40;;
57846;SDS011;43675;50.030;21.952;2023-07-08T06:22:25;22.50;;;20.40;;
57846;SDS011;43675;50.030;21.952;2023-07-08T06:24:52;23.30;;;20.90;;
57846;SDS011;43675;50.030;21.952;2023-07-08T06:27:18;22.80;;;21.00;;
57846;SDS011;43675;50.030;21.952;2023-07-08T06:29:45;22.00;;;20.10;;
57846;SDS011;43675;50.030;21.952;2023-07-08T06:32:11;21.90;;;19.80;;
57846;SDS011;43675;50.030;21.952;2023-07-08T06:34:38;20.90;;;19.10;;
57846;SDS011;43675;50.030;21.952;2023-07-08T06:37:05;21.50;;;19.30;;
57846;SDS011;43675;50.030;21.952;2023-07-08T06:39:31;21.70;;;19.60;;
57846;SDS011;43675;50.030;21.952;2023-07-08T06:41:58;20.70;;;19.00;;
57846;SDS011;43675;50.030;21.952;2023-07-08T06:44:25;21.20;;;19.40;;
57846;SDS011;43675;50.030;21.952;2023-07-08T06:46:52;21.00;;;19.10;;
57846;SDS011;43675;50.030;21.952;2023-07-08T06:49:18;20.60;;;18.70;;
57846;SDS011;43675;50.030;21.952;2023-07-08T06:51:45;21.00;;;19.00;;
57846;SDS011;43675;50.030;21.952;2023-07-08T06:54:11;21.00;;;19.10;;
57846;SDS011;43675;50.030;21.952;2023-07-08T06:56:38;21.20;;;19.20;;
57846;SDS011;43675;50.030;21.952;2023-07-08T06:59:05;21.00;;;19.20;;
57846;SDS011;43675;50.030;21.952;2023-07-08T07:01:33;20.00;;;18.20;;
57846;SDS011;43675;50.030;21.952;2023-07-08T07:03:59;20.30;;;18.40;;
57846;SDS011;43675;50.030;21.952;2023-07-08T07:06:26;20.10;;;18.30;;
57846;SDS011;43675;50.030;21.952;2023-07-08T07:08:52;19.60;;;18.00;;
57846;SDS011;43675;50.030;21.952;2023-07-08T07:11:19;20.70;;;18.90;;
57846;SDS011;43675;50.030;21.952;2023-07-08T07:13:46;19.40;;;17.80;;
57846;SDS011;43675;50.030;21.952;2023-07-08T07:16:12;19.20;;;17.60;;
57846;SDS011;43675;50.030;21.952;2023-07-08T07:18:39;18.50;;;16.90;;
57846;SDS011;43675;50.030;21.952;2023-07-08T07:21:06;19.50;;;17.60;;
57846;SDS011;43675;50.030;21.952;2023-07-08T07:23:32;19.90;;;18.00;;
57846;SDS011;43675;50.030;21.952;2023-07-08T07:25:59;19.20;;;17.70;;
57846;SDS011;43675;50.030;21.952;2023-07-08T07:28:25;19.70;;;18.00;;
57846;SDS011;43675;50.030;21.952;2023-07-08T07:30:55;19.60;;;17.80;;
57846;SDS011;43675;50.030;21.952;2023-07-08T07:33:23;19.50;;;18.00;;
57846;SDS011;43675;50.030;21.952;2023-07-08T07:35:50;18.20;;;16.70;;
57846;SDS011;43675;50.030;21.952;2023-07-08T07:38:17;21.60;;;17.60;;
57846;SDS011;43675;50.030;21.952;2023-07-08T07:40:44;18.60;;;17.10;;
57846;SDS011;43675;50.030;21.952;2023-07-08T07:43:11;18.60;;;17.10;;
57846;SDS011;43675;50.030;21.952;2023-07-08T07:45:37;20.00;;;18.20;;
57846;SDS011;43675;50.030;21.952;2023-07-08T07:48:04;19.50;;;18.00;;
57846;SDS011;43675;50.030;21.952;2023-07-08T07:50:30;18.40;;;17.00;;
57846;SDS011;43675;50.030;21.952;2023-07-08T07:52:57;18.20;;;16.80;;
57846;SDS011;43675;50.030;21.952;2023-07-08T07:55:24;18.80;;;17.40;;
57846;SDS011;43675;50.030;21.952;2023-07-08T07:57:51;17.70;;;16.40;;
57846;SDS011;43675;50.030;21.952;2023-07-08T08:00:17;17.70;;;16.40;;
57846;SDS011;43675;50.030;21.952;2023-07-08T08:02:44;18.70;;;17.40;;
57846;SDS011;43675;50.030;21.952;2023-07-08T08:05:11;18.30;;;16.70;;
57846;SDS011;43675;50.030;21.952;2023-07-08T08:07:37;19.10;;;17.60;;
57846;SDS011;43675;50.030;21.952;2023-07-08T08:10:04;19.20;;;17.60;;
57846;SDS011;43675;50.030;21.952;2023-07-08T08:12:31;18.90;;;17.40;;
57846;SDS011;43675;50.030;21.952;2023-07-08T08:14:57;20.10;;;18.30;;
57846;SDS011;43675;50.030;21.952;2023-07-08T08:17:24;19.70;;;18.20;;
57846;SDS011;43675;50.030;21.952;2023-07-08T08:19:50;19.00;;;17.40;;
57846;SDS011;43675;50.030;21.952;2023-07-08T08:22:17;19.10;;;17.60;;
57846;SDS011;43675;50.030;21.952;2023-07-08T08:24:43;18.40;;;16.80;;
57846;SDS011;43675;50.030;21.952;2023-07-08T08:27:10;18.90;;;17.30;;
57846;SDS011;43675;50.030;21.952;2023-07-08T08:29:36;17.40;;;16.00;;
57846;SDS011;43675;50.030;21.952;2023-07-08T08:32:03;18.60;;;16.90;;
57846;SDS011;43675;50.030;21.952;2023-07-08T08:34:29;18.90;;;17.30;;
57846;SDS011;43675;50.030;21.952;2023-07-08T08:36:56;18.20;;;16.70;;
57846;SDS011;43675;50.030;21.952;2023-07-08T08:39:22;18.40;;;16.90;;
57846;SDS011;43675;50.030;21.952;2023-07-08T08:41:49;18.90;;;17.20;;
57846;SDS011;43675;50.030;21.952;2023-07-08T08:44:17;17.50;;;15.90;;
57846;SDS011;43675;50.030;21.952;2023-07-08T08:47:01;18.00;;;16.70;;
57846;SDS011;43675;50.030;21.952;2023-07-08T08:49:48;17.20;;;15.80;;
57846;SDS011;43675;50.030;21.952;2023-07-08T08:52:22;17.50;;;16.00;;
57846;SDS011;43675;50.030;21.952;2023-07-08T08:54:49;17.70;;;16.30;;
57846;SDS011;43675;50.030;21.952;2023-07-08T09:00:15;18.90;;;17.40;;
57846;SDS011;43675;50.030;21.952;2023-07-08T09:02:53;19.20;;;17.50;;
57846;SDS011;43675;50.030;21.952;2023-07-08T09:05:26;18.10;;;16.60;;
57846;SDS011;43675;50.030;21.952;2023-07-08T09:13:29;17.80;;;16.50;;
57846;SDS011;43675;50.030;21.952;2023-07-08T09:16:01;18.60;;;17.10;;
57846;SDS011;43675;50.030;21.952;2023-07-08T09:18:40;18.00;;;16.40;;
57846;SDS011;43675;50.030;21.952;2023-07-08T09:21:40;17.80;;;16.50;;
57846;SDS011;43675;50.030;21.952;2023-07-08T09:24:16;17.80;;;16.30;;
57846;SDS011;43675;50.030;21.952;2023-07-08T09:26:46;17.60;;;16.20;;
57846;SDS011;43675;50.030;21.952;2023-07-08T09:29:17;17.20;;;15.90;;
57846;SDS011;43675;50.030;21.952;2023-07-08T09:31:44;17.60;;;16.30;;
57846;SDS011;43675;50.030;21.952;2023-07-08T09:34:12;18.10;;;16.70;;
57846;SDS011;43675;50.030;21.952;2023-07-08T09:36:44;18.50;;;17.10;;
57846;SDS011;43675;50.030;21.952;2023-07-08T09:39:14;18.90;;;17.40;;
57846;SDS011;43675;50.030;21.952;2023-07-08T09:41:43;18.40;;;17.00;;
57846;SDS011;43675;50.030;21.952;2023-07-08T09:44:13;18.00;;;16.70;;
57846;SDS011;43675;50.030;21.952;2023-07-08T09:46:47;19.20;;;17.70;;
57846;SDS011;43675;50.030;21.952;2023-07-08T09:51:46;18.70;;;17.50;;
57846;SDS011;43675;50.030;21.952;2023-07-08T09:54:13;17.70;;;16.30;;
57846;SDS011;43675;50.030;21.952;2023-07-08T09:56:41;19.00;;;17.50;;
57846;SDS011;43675;50.030;21.952;2023-07-08T09:59:11;19.10;;;17.60;;
57846;SDS011;43675;50.030;21.952;2023-07-08T10:01:40;17.90;;;16.60;;
57846;SDS011;43675;50.030;21.952;2023-07-08T10:04:08;18.80;;;17.30;;
57846;SDS011;43675;50.030;21.952;2023-07-08T10:06:35;19.00;;;17.50;;
57846;SDS011;43675;50.030;21.952;2023-07-08T10:09:03;19.10;;;17.50;;
57846;SDS011;43675;50.030;21.952;2023-07-08T10:11:39;19.20;;;17.40;;
57846;SDS011;43675;50.030;21.952;2023-07-08T10:16:57;18.80;;;17.30;;
57846;SDS011;43675;50.030;21.952;2023-07-08T10:19:24;19.00;;;17.60;;
57846;SDS011;43675;50.030;21.952;2023-07-08T10:29:44;19.10;;;17.90;;
57846;SDS011;43675;50.030;21.952;2023-07-08T10:32:21;18.80;;;17.40;;
57846;SDS011;43675;50.030;21.952;2023-07-08T10:34:58;19.10;;;17.60;;
57846;SDS011;43675;50.030;21.952;2023-07-08T10:37:39;19.00;;;17.50;;
57846;SDS011;43675;50.030;21.952;2023-07-08T10:49:05;18.90;;;17.40;;
57846;SDS011;43675;50.030;21.952;2023-07-08T10:57:00;21.50;;;18.20;;
57846;SDS011;43675;50.030;21.952;2023-07-08T11:05:24;19.50;;;18.00;;
57846;SDS011;43675;50.030;21.952;2023-07-08T11:07:54;19.40;;;18.10;;
57846;SDS011;43675;50.030;21.952;2023-07-08T11:13:00;19.30;;;18.00;;
57846;SDS011;43675;50.030;21.952;2023-07-08T11:15:28;19.80;;;18.40;;
57846;SDS011;43675;50.030;21.952;2023-07-08T11:18:08;17.70;;;16.30;;
57846;SDS011;43675;50.030;21.952;2023-07-08T11:28:45;19.50;;;18.00;;
57846;SDS011;43675;50.030;21.952;2023-07-08T11:31:13;20.10;;;18.40;;
57846;SDS011;43675;50.030;21.952;2023-07-08T11:33:41;19.80;;;18.30;;
57846;SDS011;43675;50.030;21.952;2023-07-08T11:36:08;19.30;;;17.90;;
57846;SDS011;43675;50.030;21.952;2023-07-08T11:38:36;19.10;;;17.60;;
57846;SDS011;43675;50.030;21.952;2023-07-08T11:41:14;17.70;;;16.40;;
57846;SDS011;43675;50.030;21.952;2023-07-08T11:43:47;17.20;;;16.00;;
57846;SDS011;43675;50.030;21.952;2023-07-08T11:46:22;18.00;;;16.50;;
57846;SDS011;43675;50.030;21.952;2023-07-08T11:48:55;19.30;;;17.90;;
57846;SDS011;43675;50.030;21.952;2023-07-08T11:51:30;18.50;;;17.10;;
57846;SDS011;43675;50.030;21.952;2023-07-08T11:59:22;19.20;;;17.70;;
57846;SDS011;43675;50.030;21.952;2023-07-08T12:06:53;17.80;;;16.60;;
57846;SDS011;43675;50.030;21.952;2023-07-08T12:09:34;19.10;;;17.60;;
57846;SDS011;43675;50.030;21.952;2023-07-08T12:12:05;18.80;;;17.40;;
57846;SDS011;43675;50.030;21.952;2023-07-08T12:14:40;18.40;;;16.80;;
57846;SDS011;43675;50.030;21.952;2023-07-08T12:17:10;17.50;;;16.10;;
57846;SDS011;43675;50.030;21.952;2023-07-08T12:19:38;17.10;;;15.80;;
57846;SDS011;43675;50.030;21.952;2023-07-08T12:22:08;18.30;;;16.90;;
57846;SDS011;43675;50.030;21.952;2023-07-08T12:24:35;18.20;;;16.80;;
57846;SDS011;43675;50.030;21.952;2023-07-08T12:27:02;19.10;;;17.60;;
57846;SDS011;43675;50.030;21.952;2023-07-08T12:29:29;18.10;;;16.60;;
57846;SDS011;43675;50.030;21.952;2023-07-08T12:31:55;17.20;;;15.90;;
57846;SDS011;43675;50.030;21.952;2023-07-08T12:34:22;17.10;;;15.80;;
57846;SDS011;43675;50.030;21.952;2023-07-08T12:36:52;17.20;;;16.00;;
57846;SDS011;43675;50.030;21.952;2023-07-08T12:39:19;17.40;;;16.10;;
57846;SDS011;43675;50.030;21.952;2023-07-08T12:41:46;17.90;;;16.50;;
57846;SDS011;43675;50.030;21.952;2023-07-08T12:44:17;19.90;;;18.50;;
57846;SDS011;43675;50.030;21.952;2023-07-08T12:46:46;18.40;;;17.00;;
57846;SDS011;43675;50.030;21.952;2023-07-08T12:49:15;18.10;;;16.90;;
57846;SDS011;43675;50.030;21.952;2023-07-08T12:51:43;17.20;;;15.80;;
57846;SDS011;43675;50.030;21.952;2023-07-08T12:54:11;17.60;;;16.40;;
57846;SDS011;43675;50.030;21.952;2023-07-08T12:56:40;17.20;;;15.90;;
57846;SDS011;43675;50.030;21.952;2023-07-08T12:59:17;17.00;;;15.60;;
57846;SDS011;43675;50.030;21.952;2023-07-08T13:01:46;17.60;;;16.20;;
57846;SDS011;43675;50.030;21.952;2023-07-08T13:04:13;17.60;;;16.30;;
57846;SDS011;43675;50.030;21.952;2023-07-08T13:06:41;18.00;;;16.60;;
57846;SDS011;43675;50.030;21.952;2023-07-08T13:12:06;16.60;;;15.40;;
57846;SDS011;43675;50.030;21.952;2023-07-08T13:14:40;16.30;;;15.20;;
57846;SDS011;43675;50.030;21.952;2023-07-08T13:17:07;17.40;;;16.10;;
57846;SDS011;43675;50.030;21.952;2023-07-08T13:19:34;16.20;;;15.00;;
57846;SDS011;43675;50.030;21.952;2023-07-08T13:22:02;17.20;;;15.90;;
57846;SDS011;43675;50.030;21.952;2023-07-08T13:24:29;17.10;;;15.80;;
57846;SDS011;43675;50.030;21.952;2023-07-08T13:26:58;16.30;;;15.00;;
57846;SDS011;43675;50.030;21.952;2023-07-08T13:29:24;17.60;;;16.40;;
57846;SDS011;43675;50.030;21.952;2023-07-08T13:31:55;16.80;;;15.60;;
57846;SDS011;43675;50.030;21.952;2023-07-08T13:34:27;17.80;;;16.50;;
57846;SDS011;43675;50.030;21.952;2023-07-08T13:36:54;17.70;;;16.40;;
57846;SDS011;43675;50.030;21.952;2023-07-08T13:39:22;18.20;;;16.90;;
57846;SDS011;43675;50.030;21.952;2023-07-08T13:41:55;17.90;;;16.30;;
57846;SDS011;43675;50.030;21.952;2023-07-08T13:44:22;17.70;;;16.40;;
57846;SDS011;43675;50.030;21.952;2023-07-08T13:49:19;18.50;;;17.10;;
57846;SDS011;43675;50.030;21.952;2023-07-08T13:51:51;19.30;;;17.50;;
57846;SDS011;43675;50.030;21.952;2023-07-08T13:54:25;17.60;;;16.10;;
57846;SDS011;43675;50.030;21.952;2023-07-08T13:57:00;18.20;;;16.70;;
57846;SDS011;43675;50.030;21.952;2023-07-08T13:59:27;17.90;;;16.60;;
57846;SDS011;43675;50.030;21.952;2023-07-08T14:01:55;17.80;;;16.40;;
57846;SDS011;43675;50.030;21.952;2023-07-08T14:04:28;16.40;;;15.30;;
57846;SDS011;43675;50.030;21.952;2023-07-08T14:06:56;17.40;;;16.20;;
57846;SDS011;43675;50.030;21.952;2023-07-08T14:09:23;17.70;;;16.50;;
57846;SDS011;43675;50.030;21.952;2023-07-08T14:11:50;17.40;;;16.20;;
57846;SDS011;43675;50.030;21.952;2023-07-08T14:14:18;17.30;;;16.00;;
57846;SDS011;43675;50.030;21.952;2023-07-08T14:16:49;17.80;;;16.40;;
57846;SDS011;43675;50.030;21.952;2023-07-08T14:19:21;17.60;;;16.10;;
57846;SDS011;43675;50.030;21.952;2023-07-08T14:21:51;17.00;;;15.80;;
57846;SDS011;43675;50.030;21.952;2023-07-08T14:24:21;17.50;;;16.20;;
57846;SDS011;43675;50.030;21.952;2023-07-08T14:26:48;17.50;;;16.20;;
57846;SDS011;43675;50.030;21.952;2023-07-08T14:29:14;18.10;;;16.70;;
57846;SDS011;43675;50.030;21.952;2023-07-08T14:31:41;16.80;;;15.60;;
57846;SDS011;43675;50.030;21.952;2023-07-08T14:34:09;17.40;;;16.10;;
57846;SDS011;43675;50.030;21.952;2023-07-08T14:36:43;17.60;;;16.40;;
57846;SDS011;43675;50.030;21.952;2023-07-08T14:39:13;17.80;;;16.50;;
57846;SDS011;43675;50.030;21.952;2023-07-08T14:41:42;17.30;;;16.10;;
57846;SDS011;43675;50.030;21.952;2023-07-08T14:44:20;17.00;;;15.60;;
57846;SDS011;43675;50.030;21.952;2023-07-08T14:46:47;17.40;;;15.90;;
57846;SDS011;43675;50.030;21.952;2023-07-08T14:49:18;17.00;;;15.90;;
57846;SDS011;43675;50.030;21.952;2023-07-08T14:51:48;17.00;;;15.70;;
57846;SDS011;43675;50.030;21.952;2023-07-08T14:54:15;16.80;;;15.60;;
57846;SDS011;43675;50.030;21.952;2023-07-08T14:56:43;16.40;;;15.20;;
57846;SDS011;43675;50.030;21.952;2023-07-08T14:59:16;16.20;;;14.90;;
57846;SDS011;43675;50.030;21.952;2023-07-08T15:01:45;16.90;;;15.60;;
57846;SDS011;43675;50.030;21.952;2023-07-08T15:04:12;16.80;;;15.60;;
57846;SDS011;43675;50.030;21.952;2023-07-08T15:06:43;16.30;;;15.10;;
57846;SDS011;43675;50.030;21.952;2023-07-08T15:09:11;16.60;;;15.10;;
57846;SDS011;43675;50.030;21.952;2023-07-08T15:11:39;16.70;;;15.50;;
57846;SDS011;43675;50.030;21.952;2023-07-08T15:14:14;16.20;;;15.00;;
57846;SDS011;43675;50.030;21.952;2023-07-08T15:16:48;16.20;;;15.10;;
57846;SDS011;43675;50.030;21.952;2023-07-08T15:19:15;24.70;;;22.40;;
57846;SDS011;43675;50.030;21.952;2023-07-08T15:21:42;29.50;;;26.80;;
57846;SDS011;43675;50.030;21.952;2023-07-08T15:24:09;18.40;;;17.00;;
57846;SDS011;43675;50.030;21.952;2023-07-08T15:26:41;16.60;;;15.20;;
57846;SDS011;43675;50.030;21.952;2023-07-08T15:29:17;19.40;;;17.80;;
57846;SDS011;43675;50.030;21.952;2023-07-08T15:31:45;16.00;;;14.80;;
57846;SDS011;43675;50.030;21.952;2023-07-08T15:34:19;16.80;;;15.50;;
57846;SDS011;43675;50.030;21.952;2023-07-08T15:36:47;15.70;;;14.60;;